KCEY/CEY METAR and TAF weather

Enter ICAO airport designator
Station Type Date Time Source
KCEY METAR 2019/09/21 05:15 UTC NOAA

KCEY 210515Z AUTO 16005KT 10SM CLR 23/18 A3018 RMK AO1


Station Type Date Time Source
KCEY Decoded METAR 2019/09/21 05:15 UTC NOAA

Station name not available
Sep 21, 2019 - 01:15 AM EDT / 2019.09.21 0515 UTC
Wind: from the SSE (160 degrees) at 6 MPH (5 KT):0
Visibility: 10 mile(s):0
Sky conditions: clear
Temperature: 73 F (23 C)
Dew Point: 64 F (18 C)
Relative Humidity: 73%
Pressure (altimeter): 30.18 in. Hg (1022 hPa)
ob: KCEY 210515Z AUTO 16005KT 10SM CLR 23/18 A3018 RMK AO1
cycle: 5

Station Type Date Time Source
KCEY TAF UTC NOAA

Error!

Example: see airport list